This is the latest recevied weather packets stored in our database for station/object DG2MCM-11. If no packets are shown the sender has not sent any weather packets the latest 10 day(s).
| Time | Temp. | Humidity | Pressure | Rain* | Wind** | Luminosity | Snow |
|---|---|---|---|---|---|---|---|
| 1777790291 | 16.11° C | 53% | 1015.9 hPa | 0 mm | - | - | - |
| 1777789690 | 15° C | 59% | 1016.3 hPa | 0 mm | - | - | - |
| 1777788487 | 12.22° C | 64% | 1017 hPa | 0 mm | - | - | - |
| 1777787884 | 11.67° C | 66% | 1017.2 hPa | 0 mm | - | - | - |
| 1777787282 | 11.11° C | 68% | 1017.3 hPa | 0 mm | - | - | - |
| 1777785478 | 10° C | 72% | 1017.7 hPa | 0 mm | - | - | - |
| 1777784877 | 10° C | 73% | 1017.8 hPa | 0 mm | - | - | - |
| 1777783674 | 9.44° C | 75% | 1018 hPa | 0 mm | - | - | - |
| 1777782471 | 9.44° C | 75% | 1018 hPa | 0 mm | - | - | - |
| 1777781870 | 9.44° C | 75% | 1018.1 hPa | 0 mm | - | - | - |
| 1777780125 | 8.89° C | 76% | 1018.1 hPa | 0 mm | - | - | - |
| 1777779524 | 8.89° C | 76% | 1018.1 hPa | 0 mm | - | - | - |
| 1777777720 | 9.44° C | 75% | 1018 hPa | 0 mm | - | - | - |
| 1777775916 | 9.44° C | 74% | 1018.3 hPa | 0 mm | - | - | - |
| 1777775314 | 9.44° C | 75% | 1018.4 hPa | 0 mm | - | - | - |
| 1777772308 | 9.44° C | 78% | 1018.3 hPa | 0 mm | - | - | - |
| 1777771105 | 9.44° C | 79% | 1018.4 hPa | 0 mm | - | - | - |
| 1777770504 | 9.44° C | 78% | 1018.4 hPa | 0 mm | - | - | - |
| 1777769902 | 9.44° C | 76% | 1018.4 hPa | 0 mm | - | - | - |
| 1777769300 | 10° C | 74% | 1018.3 hPa | 0 mm | - | - | - |
| 1777768698 | 10° C | 75% | 1018.3 hPa | 0 mm | - | - | - |
| 1777768097 | 10° C | 74% | 1018.3 hPa | 0 mm | - | - | - |
| 1777767495 | 10.56° C | 73% | 1018.3 hPa | 0 mm | - | - | - |
| 1777763887 | 10.56° C | 74% | 1018.4 hPa | 0 mm | - | - | - |
| 1777763285 | 10.56° C | 75% | 1018.4 hPa | 0 mm | - | - | - |
* Rain latest hour (hover to see other rain measurements)
** Current wind speed in m/s (hover to see current wind gust speed)